sensor_id;sensor_type;location;lat;lon;timestamp;temperature;humidity
3713;DHT22;1872;51.406;6.856;2023-01-28T00:01:36;3.40;99.90
3713;DHT22;1872;51.406;6.856;2023-01-28T00:04:02;3.40;99.90
3713;DHT22;1872;51.406;6.856;2023-01-28T00:06:28;3.30;99.90
3713;DHT22;1872;51.406;6.856;2023-01-28T00:08:53;3.30;99.90
3713;DHT22;1872;51.406;6.856;2023-01-28T00:11:20;3.30;99.90
3713;DHT22;1872;51.406;6.856;2023-01-28T00:13:52;3.30;99.90
3713;DHT22;1872;51.406;6.856;2023-01-28T00:16:19;3.30;99.90
3713;DHT22;1872;51.406;6.856;2023-01-28T00:18:47;3.40;99.90
3713;DHT22;1872;51.406;6.856;2023-01-28T00:21:14;3.30;99.90
3713;DHT22;1872;51.406;6.856;2023-01-28T00:23:42;3.40;99.90
3713;DHT22;1872;51.406;6.856;2023-01-28T00:26:13;3.40;99.90
3713;DHT22;1872;51.406;6.856;2023-01-28T00:28:41;3.40;99.90
3713;DHT22;1872;51.406;6.856;2023-01-28T00:31:08;3.40;99.90
3713;DHT22;1872;51.406;6.856;2023-01-28T00:33:35;3.30;99.90
3713;DHT22;1872;51.406;6.856;2023-01-28T00:36:02;3.30;99.90
3713;DHT22;1872;51.406;6.856;2023-01-28T00:38:28;3.30;99.90
3713;DHT22;1872;51.406;6.856;2023-01-28T00:40:54;3.20;99.90
3713;DHT22;1872;51.406;6.856;2023-01-28T00:43:20;3.20;99.90
3713;DHT22;1872;51.406;6.856;2023-01-28T00:45:46;3.10;99.90
3713;DHT22;1872;51.406;6.856;2023-01-28T00:48:14;3.10;99.90
3713;DHT22;1872;51.406;6.856;2023-01-28T00:50:39;3.10;99.90
3713;DHT22;1872;51.406;6.856;2023-01-28T00:53:05;3.10;99.90
3713;DHT22;1872;51.406;6.856;2023-01-28T00:55:31;3.20;99.90
3713;DHT22;1872;51.406;6.856;2023-01-28T00:57:57;3.20;99.90
3713;DHT22;1872;51.406;6.856;2023-01-28T01:00:22;3.20;99.90
3713;DHT22;1872;51.406;6.856;2023-01-28T01:02:51;3.20;99.90
3713;DHT22;1872;51.406;6.856;2023-01-28T01:05:19;3.20;99.90
3713;DHT22;1872;51.406;6.856;2023-01-28T01:07:45;3.20;99.90
3713;DHT22;1872;51.406;6.856;2023-01-28T01:10:14;3.20;99.90
3713;DHT22;1872;51.406;6.856;2023-01-28T01:12:40;3.10;99.90
3713;DHT22;1872;51.406;6.856;2023-01-28T01:15:07;3.00;99.90
3713;DHT22;1872;51.406;6.856;2023-01-28T01:17:39;3.00;99.90
3713;DHT22;1872;51.406;6.856;2023-01-28T01:20:07;3.00;99.90
3713;DHT22;1872;51.406;6.856;2023-01-28T01:22:34;2.90;99.90
3713;DHT22;1872;51.406;6.856;2023-01-28T01:25:01;2.90;99.90
3713;DHT22;1872;51.406;6.856;2023-01-28T01:27:28;2.90;99.90
3713;DHT22;1872;51.406;6.856;2023-01-28T01:29:54;2.90;99.90
3713;DHT22;1872;51.406;6.856;2023-01-28T01:32:20;2.80;99.90
3713;DHT22;1872;51.406;6.856;2023-01-28T01:34:47;2.80;99.90
3713;DHT22;1872;51.406;6.856;2023-01-28T01:37:12;2.90;99.90
3713;DHT22;1872;51.406;6.856;2023-01-28T01:39:38;2.90;99.90
3713;DHT22;1872;51.406;6.856;2023-01-28T01:42:04;2.90;99.90
3713;DHT22;1872;51.406;6.856;2023-01-28T01:48:04;3.00;99.90
3713;DHT22;1872;51.406;6.856;2023-01-28T01:50:24;3.10;99.90
3713;DHT22;1872;51.406;6.856;2023-01-28T01:52:56;3.10;99.90
3713;DHT22;1872;51.406;6.856;2023-01-28T01:55:26;3.10;99.90
3713;DHT22;1872;51.406;6.856;2023-01-28T01:57:57;3.10;99.90
3713;DHT22;1872;51.406;6.856;2023-01-28T02:00:25;3.00;99.90
3713;DHT22;1872;51.406;6.856;2023-01-28T02:02:53;3.00;99.90
3713;DHT22;1872;51.406;6.856;2023-01-28T02:05:21;3.00;99.90
3713;DHT22;1872;51.406;6.856;2023-01-28T02:07:50;2.90;99.90
3713;DHT22;1872;51.406;6.856;2023-01-28T02:10:20;2.90;99.90
3713;DHT22;1872;51.406;6.856;2023-01-28T02:12:59;2.80;99.90
3713;DHT22;1872;51.406;6.856;2023-01-28T02:15:25;2.80;99.90
3713;DHT22;1872;51.406;6.856;2023-01-28T02:17:56;2.80;99.90
3713;DHT22;1872;51.406;6.856;2023-01-28T02:20:25;2.80;99.90
3713;DHT22;1872;51.406;6.856;2023-01-28T02:31:17;2.70;99.90
3713;DHT22;1872;51.406;6.856;2023-01-28T02:36:58;2.70;99.90
3713;DHT22;1872;51.406;6.856;2023-01-28T02:39:29;2.60;99.90
3713;DHT22;1872;51.406;6.856;2023-01-28T02:42:04;2.60;99.90
3713;DHT22;1872;51.406;6.856;2023-01-28T02:44:30;2.70;99.90
3713;DHT22;1872;51.406;6.856;2023-01-28T02:46:56;2.60;99.90
3713;DHT22;1872;51.406;6.856;2023-01-28T02:52:41;2.60;99.90
3713;DHT22;1872;51.406;6.856;2023-01-28T03:01:27;2.60;99.90
3713;DHT22;1872;51.406;6.856;2023-01-28T03:04:18;2.60;99.90
3713;DHT22;1872;51.406;6.856;2023-01-28T03:06:49;2.50;99.90
3713;DHT22;1872;51.406;6.856;2023-01-28T03:09:19;2.50;99.90
3713;DHT22;1872;51.406;6.856;2023-01-28T03:14:34;2.50;99.90
3713;DHT22;1872;51.406;6.856;2023-01-28T03:17:42;2.50;99.90
3713;DHT22;1872;51.406;6.856;2023-01-28T03:20:37;2.50;99.90
3713;DHT22;1872;51.406;6.856;2023-01-28T03:23:28;2.50;99.90
3713;DHT22;1872;51.406;6.856;2023-01-28T03:26:17;2.60;99.90
3713;DHT22;1872;51.406;6.856;2023-01-28T03:29:08;2.60;99.90
3713;DHT22;1872;51.406;6.856;2023-01-28T03:31:54;2.60;99.90
3713;DHT22;1872;51.406;6.856;2023-01-28T03:34:42;2.60;99.90
3713;DHT22;1872;51.406;6.856;2023-01-28T03:37:27;2.60;99.90
3713;DHT22;1872;51.406;6.856;2023-01-28T03:40:01;2.60;99.90
3713;DHT22;1872;51.406;6.856;2023-01-28T03:42:27;2.60;99.90
3713;DHT22;1872;51.406;6.856;2023-01-28T03:44:52;2.60;99.90
3713;DHT22;1872;51.406;6.856;2023-01-28T03:47:20;2.60;99.90
3713;DHT22;1872;51.406;6.856;2023-01-28T03:49:48;2.60;99.90
3713;DHT22;1872;51.406;6.856;2023-01-28T03:52:18;2.60;99.90
3713;DHT22;1872;51.406;6.856;2023-01-28T03:54:49;2.70;99.90
3713;DHT22;1872;51.406;6.856;2023-01-28T03:57:24;2.70;99.90
3713;DHT22;1872;51.406;6.856;2023-01-28T03:59:50;2.60;99.90
3713;DHT22;1872;51.406;6.856;2023-01-28T04:02:18;2.60;99.90
3713;DHT22;1872;51.406;6.856;2023-01-28T04:04:44;2.60;99.90
3713;DHT22;1872;51.406;6.856;2023-01-28T04:07:15;2.60;99.90
3713;DHT22;1872;51.406;6.856;2023-01-28T04:09:44;2.50;99.90
3713;DHT22;1872;51.406;6.856;2023-01-28T04:12:09;2.50;99.90
3713;DHT22;1872;51.406;6.856;2023-01-28T04:14:35;2.50;99.90
3713;DHT22;1872;51.406;6.856;2023-01-28T04:17:01;2.50;99.90
3713;DHT22;1872;51.406;6.856;2023-01-28T04:19:27;2.50;99.90
3713;DHT22;1872;51.406;6.856;2023-01-28T04:21:53;2.50;99.90
3713;DHT22;1872;51.406;6.856;2023-01-28T04:24:22;2.50;99.90
3713;DHT22;1872;51.406;6.856;2023-01-28T04:26:55;2.50;99.90
3713;DHT22;1872;51.406;6.856;2023-01-28T04:29:21;2.50;99.90
3713;DHT22;1872;51.406;6.856;2023-01-28T04:31:47;2.50;99.90
3713;DHT22;1872;51.406;6.856;2023-01-28T04:34:12;2.60;99.90
3713;DHT22;1872;51.406;6.856;2023-01-28T04:36:38;2.60;99.90
3713;DHT22;1872;51.406;6.856;2023-01-28T04:39:03;2.60;99.90
3713;DHT22;1872;51.406;6.856;2023-01-28T04:41:30;2.60;99.90
3713;DHT22;1872;51.406;6.856;2023-01-28T04:43:58;2.60;99.90
3713;DHT22;1872;51.406;6.856;2023-01-28T04:46:24;2.60;99.90
3713;DHT22;1872;51.406;6.856;2023-01-28T04:48:49;2.50;99.90
3713;DHT22;1872;51.406;6.856;2023-01-28T04:51:15;2.60;99.90
3713;DHT22;1872;51.406;6.856;2023-01-28T04:53:41;2.70;99.90
3713;DHT22;1872;51.406;6.856;2023-01-28T04:56:06;2.70;99.90
3713;DHT22;1872;51.406;6.856;2023-01-28T04:58:32;2.60;99.90
3713;DHT22;1872;51.406;6.856;2023-01-28T05:00:58;2.60;99.90
3713;DHT22;1872;51.406;6.856;2023-01-28T05:03:24;2.70;99.90
3713;DHT22;1872;51.406;6.856;2023-01-28T05:05:50;2.70;99.90
3713;DHT22;1872;51.406;6.856;2023-01-28T05:08:16;2.80;99.90
3713;DHT22;1872;51.406;6.856;2023-01-28T05:10:41;2.70;99.90
3713;DHT22;1872;51.406;6.856;2023-01-28T05:13:07;2.70;99.90
3713;DHT22;1872;51.406;6.856;2023-01-28T05:15:40;2.80;99.90
3713;DHT22;1872;51.406;6.856;2023-01-28T05:18:06;2.70;99.90
3713;DHT22;1872;51.406;6.856;2023-01-28T05:20:32;2.70;99.90
3713;DHT22;1872;51.406;6.856;2023-01-28T05:22:59;2.70;99.90
3713;DHT22;1872;51.406;6.856;2023-01-28T05:25:24;2.60;99.90
3713;DHT22;1872;51.406;6.856;2023-01-28T05:27:52;2.60;99.90
3713;DHT22;1872;51.406;6.856;2023-01-28T05:30:18;2.60;99.90
3713;DHT22;1872;51.406;6.856;2023-01-28T05:32:45;2.60;99.90
3713;DHT22;1872;51.406;6.856;2023-01-28T05:35:13;2.60;99.90
3713;DHT22;1872;51.406;6.856;2023-01-28T05:37:39;2.60;99.90
3713;DHT22;1872;51.406;6.856;2023-01-28T05:40:05;2.60;99.90
3713;DHT22;1872;51.406;6.856;2023-01-28T05:42:30;2.60;99.90
3713;DHT22;1872;51.406;6.856;2023-01-28T05:44:56;2.50;99.90
3713;DHT22;1872;51.406;6.856;2023-01-28T05:47:22;2.50;99.90
3713;DHT22;1872;51.406;6.856;2023-01-28T05:49:50;2.50;99.90
3713;DHT22;1872;51.406;6.856;2023-01-28T05:52:15;2.50;99.90
3713;DHT22;1872;51.406;6.856;2023-01-28T05:54:41;2.50;99.90
3713;DHT22;1872;51.406;6.856;2023-01-28T05:57:07;2.40;99.90
3713;DHT22;1872;51.406;6.856;2023-01-28T05:59:32;2.50;99.90
3713;DHT22;1872;51.406;6.856;2023-01-28T06:01:58;2.50;99.90
3713;DHT22;1872;51.406;6.856;2023-01-28T06:04:26;2.50;99.90
3713;DHT22;1872;51.406;6.856;2023-01-28T06:06:52;2.50;99.90
3713;DHT22;1872;51.406;6.856;2023-01-28T06:09:17;2.50;99.90
3713;DHT22;1872;51.406;6.856;2023-01-28T06:11:45;2.50;99.90
3713;DHT22;1872;51.406;6.856;2023-01-28T06:14:11;2.50;99.90
3713;DHT22;1872;51.406;6.856;2023-01-28T06:16:37;2.40;99.90
3713;DHT22;1872;51.406;6.856;2023-01-28T06:19:02;2.40;99.90
3713;DHT22;1872;51.406;6.856;2023-01-28T06:21:30;2.40;99.90
3713;DHT22;1872;51.406;6.856;2023-01-28T06:23:56;2.40;99.90
3713;DHT22;1872;51.406;6.856;2023-01-28T06:26:21;2.40;99.90
3713;DHT22;1872;51.406;6.856;2023-01-28T06:28:50;2.50;99.90
3713;DHT22;1872;51.406;6.856;2023-01-28T06:31:15;2.50;99.90
3713;DHT22;1872;51.406;6.856;2023-01-28T06:33:41;2.50;99.90
3713;DHT22;1872;51.406;6.856;2023-01-28T06:36:09;2.50;99.90
3713;DHT22;1872;51.406;6.856;2023-01-28T06:38:35;2.40;99.90
3713;DHT22;1872;51.406;6.856;2023-01-28T06:41:01;2.40;99.90
3713;DHT22;1872;51.406;6.856;2023-01-28T06:43:26;2.40;99.90
3713;DHT22;1872;51.406;6.856;2023-01-28T06:45:53;2.40;99.90
3713;DHT22;1872;51.406;6.856;2023-01-28T06:48:22;2.40;99.90
3713;DHT22;1872;51.406;6.856;2023-01-28T06:50:50;2.40;99.90
3713;DHT22;1872;51.406;6.856;2023-01-28T06:53:16;2.40;99.90
3713;DHT22;1872;51.406;6.856;2023-01-28T06:55:42;2.40;99.90
3713;DHT22;1872;51.406;6.856;2023-01-28T06:58:08;2.40;99.90
3713;DHT22;1872;51.406;6.856;2023-01-28T07:00:34;2.40;99.90
3713;DHT22;1872;51.406;6.856;2023-01-28T07:03:00;2.50;99.90
3713;DHT22;1872;51.406;6.856;2023-01-28T07:05:25;2.40;99.90
3713;DHT22;1872;51.406;6.856;2023-01-28T07:07:52;2.40;99.90
3713;DHT22;1872;51.406;6.856;2023-01-28T07:10:21;2.40;99.90
3713;DHT22;1872;51.406;6.856;2023-01-28T07:12:46;2.40;99.90
3713;DHT22;1872;51.406;6.856;2023-01-28T07:15:15;2.30;99.90
3713;DHT22;1872;51.406;6.856;2023-01-28T07:17:41;2.30;99.90
3713;DHT22;1872;51.406;6.856;2023-01-28T07:20:08;2.30;99.90
3713;DHT22;1872;51.406;6.856;2023-01-28T07:22:35;2.40;99.90
3713;DHT22;1872;51.406;6.856;2023-01-28T07:25:02;2.30;99.90
3713;DHT22;1872;51.406;6.856;2023-01-28T07:27:27;2.30;99.90
3713;DHT22;1872;51.406;6.856;2023-01-28T07:29:53;2.30;99.90
3713;DHT22;1872;51.406;6.856;2023-01-28T07:32:26;2.30;99.90
3713;DHT22;1872;51.406;6.856;2023-01-28T07:34:53;2.30;99.90
3713;DHT22;1872;51.406;6.856;2023-01-28T07:37:19;2.20;99.90
3713;DHT22;1872;51.406;6.856;2023-01-28T07:39:45;2.20;99.90
3713;DHT22;1872;51.406;6.856;2023-01-28T07:42:13;2.30;99.90
3713;DHT22;1872;51.406;6.856;2023-01-28T07:44:38;2.30;99.90
3713;DHT22;1872;51.406;6.856;2023-01-28T07:47:05;2.30;99.90
3713;DHT22;1872;51.406;6.856;2023-01-28T07:49:32;2.30;99.90
3713;DHT22;1872;51.406;6.856;2023-01-28T07:51:58;2.30;99.90
3713;DHT22;1872;51.406;6.856;2023-01-28T07:54:25;2.30;99.90
3713;DHT22;1872;51.406;6.856;2023-01-28T07:56:51;2.20;99.90
3713;DHT22;1872;51.406;6.856;2023-01-28T07:59:16;2.30;99.90
3713;DHT22;1872;51.406;6.856;2023-01-28T08:01:42;2.30;99.90
3713;DHT22;1872;51.406;6.856;2023-01-28T08:04:08;2.40;99.90
3713;DHT22;1872;51.406;6.856;2023-01-28T08:06:34;2.40;99.90
3713;DHT22;1872;51.406;6.856;2023-01-28T08:09:05;2.40;99.90
3713;DHT22;1872;51.406;6.856;2023-01-28T08:11:37;2.40;99.90
3713;DHT22;1872;51.406;6.856;2023-01-28T08:14:03;2.40;99.90
3713;DHT22;1872;51.406;6.856;2023-01-28T08:16:28;2.40;99.90
3713;DHT22;1872;51.406;6.856;2023-01-28T08:18:54;2.30;99.90
3713;DHT22;1872;51.406;6.856;2023-01-28T08:21:22;2.20;99.90
3713;DHT22;1872;51.406;6.856;2023-01-28T08:23:48;2.30;99.90
3713;DHT22;1872;51.406;6.856;2023-01-28T08:26:16;2.30;99.90
3713;DHT22;1872;51.406;6.856;2023-01-28T08:28:42;2.40;99.90
3713;DHT22;1872;51.406;6.856;2023-01-28T08:31:07;2.50;99.90
3713;DHT22;1872;51.406;6.856;2023-01-28T08:33:36;2.40;99.90
3713;DHT22;1872;51.406;6.856;2023-01-28T08:36:05;2.50;99.90
3713;DHT22;1872;51.406;6.856;2023-01-28T08:38:30;2.50;99.90
3713;DHT22;1872;51.406;6.856;2023-01-28T08:40:56;2.50;99.90
3713;DHT22;1872;51.406;6.856;2023-01-28T08:43:23;2.60;99.90
3713;DHT22;1872;51.406;6.856;2023-01-28T08:45:49;2.50;99.90
3713;DHT22;1872;51.406;6.856;2023-01-28T08:48:16;2.60;99.90
3713;DHT22;1872;51.406;6.856;2023-01-28T08:50:47;2.60;99.90
3713;DHT22;1872;51.406;6.856;2023-01-28T08:53:15;2.60;99.90
3713;DHT22;1872;51.406;6.856;2023-01-28T08:55:41;2.60;99.90
3713;DHT22;1872;51.406;6.856;2023-01-28T08:58:13;2.60;99.90
3713;DHT22;1872;51.406;6.856;2023-01-28T09:00:39;2.60;99.90
3713;DHT22;1872;51.406;6.856;2023-01-28T09:03:05;2.60;99.90
3713;DHT22;1872;51.406;6.856;2023-01-28T09:05:32;2.60;99.90
3713;DHT22;1872;51.406;6.856;2023-01-28T09:08:06;2.60;99.90
3713;DHT22;1872;51.406;6.856;2023-01-28T09:10:34;2.60;99.90
3713;DHT22;1872;51.406;6.856;2023-01-28T09:13:12;2.60;99.90
3713;DHT22;1872;51.406;6.856;2023-01-28T09:15:39;2.50;99.90
3713;DHT22;1872;51.406;6.856;2023-01-28T09:18:05;2.40;99.90
3713;DHT22;1872;51.406;6.856;2023-01-28T09:20:31;2.40;99.90
3713;DHT22;1872;51.406;6.856;2023-01-28T09:22:58;2.40;99.90
3713;DHT22;1872;51.406;6.856;2023-01-28T09:25:23;2.40;99.90
3713;DHT22;1872;51.406;6.856;2023-01-28T09:27:49;2.40;99.90
3713;DHT22;1872;51.406;6.856;2023-01-28T09:30:16;2.40;99.90
3713;DHT22;1872;51.406;6.856;2023-01-28T09:32:42;2.50;99.90
3713;DHT22;1872;51.406;6.856;2023-01-28T09:35:08;2.50;99.90
3713;DHT22;1872;51.406;6.856;2023-01-28T09:37:34;2.50;99.90
3713;DHT22;1872;51.406;6.856;2023-01-28T09:40:01;2.50;99.90
3713;DHT22;1872;51.406;6.856;2023-01-28T09:42:48;2.40;99.90
3713;DHT22;1872;51.406;6.856;2023-01-28T09:47:51;2.50;99.90
3713;DHT22;1872;51.406;6.856;2023-01-28T09:52:54;2.50;99.90
3713;DHT22;1872;51.406;6.856;2023-01-28T09:55:33;2.50;99.90
3713;DHT22;1872;51.406;6.856;2023-01-28T09:58:00;2.50;99.90
3713;DHT22;1872;51.406;6.856;2023-01-28T10:06:33;2.50;99.90
3713;DHT22;1872;51.406;6.856;2023-01-28T10:17:07;2.80;99.90
3713;DHT22;1872;51.406;6.856;2023-01-28T10:19:42;2.80;99.90
3713;DHT22;1872;51.406;6.856;2023-01-28T10:22:29;2.80;99.90
3713;DHT22;1872;51.406;6.856;2023-01-28T10:25:02;2.90;99.90
3713;DHT22;1872;51.406;6.856;2023-01-28T10:27:36;2.90;99.90
3713;DHT22;1872;51.406;6.856;2023-01-28T10:32:53;2.70;99.90
3713;DHT22;1872;51.406;6.856;2023-01-28T10:35:21;2.70;99.90
3713;DHT22;1872;51.406;6.856;2023-01-28T10:37:47;2.60;99.90
3713;DHT22;1872;51.406;6.856;2023-01-28T10:40:18;2.60;99.90
3713;DHT22;1872;51.406;6.856;2023-01-28T10:42:44;2.60;99.90
3713;DHT22;1872;51.406;6.856;2023-01-28T10:45:22;2.60;99.90
3713;DHT22;1872;51.406;6.856;2023-01-28T10:47:53;2.70;99.90
3713;DHT22;1872;51.406;6.856;2023-01-28T10:50:25;2.70;99.90
3713;DHT22;1872;51.406;6.856;2023-01-28T10:52:54;2.70;99.90
3713;DHT22;1872;51.406;6.856;2023-01-28T10:55:34;2.70;99.90
3713;DHT22;1872;51.406;6.856;2023-01-28T10:58:03;2.70;99.90
3713;DHT22;1872;51.406;6.856;2023-01-28T11:00:38;2.70;99.90
3713;DHT22;1872;51.406;6.856;2023-01-28T11:03:04;2.70;99.90
3713;DHT22;1872;51.406;6.856;2023-01-28T11:05:30;2.60;99.90
3713;DHT22;1872;51.406;6.856;2023-01-28T11:08:13;2.70;99.90
3713;DHT22;1872;51.406;6.856;2023-01-28T11:10:40;2.60;99.90
3713;DHT22;1872;51.406;6.856;2023-01-28T11:13:15;2.60;99.90
3713;DHT22;1872;51.406;6.856;2023-01-28T11:15:58;2.60;99.90
3713;DHT22;1872;51.406;6.856;2023-01-28T11:18:30;2.50;99.90
3713;DHT22;1872;51.406;6.856;2023-01-28T11:21:00;2.40;99.90
3713;DHT22;1872;51.406;6.856;2023-01-28T11:23:34;2.40;99.90
3713;DHT22;1872;51.406;6.856;2023-01-28T11:26:12;2.50;99.90
3713;DHT22;1872;51.406;6.856;2023-01-28T11:28:40;2.50;99.90
3713;DHT22;1872;51.406;6.856;2023-01-28T11:31:08;2.40;99.90
3713;DHT22;1872;51.406;6.856;2023-01-28T11:34:01;2.30;99.90
3713;DHT22;1872;51.406;6.856;2023-01-28T11:36:34;2.30;99.90
3713;DHT22;1872;51.406;6.856;2023-01-28T11:39:22;2.30;99.90
3713;DHT22;1872;51.406;6.856;2023-01-28T11:41:50;2.20;99.90
3713;DHT22;1872;51.406;6.856;2023-01-28T11:44:26;2.20;99.90
3713;DHT22;1872;51.406;6.856;2023-01-28T12:00:39;2.50;99.90
3713;DHT22;1872;51.406;6.856;2023-01-28T12:03:32;2.40;99.90
3713;DHT22;1872;51.406;6.856;2023-01-28T12:20:30;2.50;99.90
3713;DHT22;1872;51.406;6.856;2023-01-28T12:26:07;2.60;99.90
3713;DHT22;1872;51.406;6.856;2023-01-28T12:37:04;2.70;99.90
3713;DHT22;1872;51.406;6.856;2023-01-28T12:42:36;2.80;99.90
3713;DHT22;1872;51.406;6.856;2023-01-28T12:45:25;3.00;99.90
3713;DHT22;1872;51.406;6.856;2023-01-28T12:48:20;3.00;99.90
3713;DHT22;1872;51.406;6.856;2023-01-28T12:51:07;3.10;99.90
3713;DHT22;1872;51.406;6.856;2023-01-28T12:56:12;3.00;99.90
3713;DHT22;1872;51.406;6.856;2023-01-28T12:58:57;2.90;99.90
3713;DHT22;1872;51.406;6.856;2023-01-28T13:04:33;2.70;99.90
3713;DHT22;1872;51.406;6.856;2023-01-28T13:07:14;2.60;99.90
3713;DHT22;1872;51.406;6.856;2023-01-28T13:09:52;2.70;99.90
3713;DHT22;1872;51.406;6.856;2023-01-28T13:12:20;2.70;99.90
3713;DHT22;1872;51.406;6.856;2023-01-28T13:14:49;2.70;99.90
3713;DHT22;1872;51.406;6.856;2023-01-28T13:17:28;2.70;99.90
3713;DHT22;1872;51.406;6.856;2023-01-28T13:19:54;2.80;99.90
3713;DHT22;1872;51.406;6.856;2023-01-28T13:22:33;2.80;99.90
3713;DHT22;1872;51.406;6.856;2023-01-28T13:25:19;2.90;99.90
3713;DHT22;1872;51.406;6.856;2023-01-28T13:28:21;3.00;99.90
3713;DHT22;1872;51.406;6.856;2023-01-28T13:30:49;3.00;99.90
3713;DHT22;1872;51.406;6.856;2023-01-28T13:33:33;3.10;99.90
3713;DHT22;1872;51.406;6.856;2023-01-28T13:36:06;3.10;99.90
3713;DHT22;1872;51.406;6.856;2023-01-28T13:38:35;3.20;99.90
3713;DHT22;1872;51.406;6.856;2023-01-28T13:41:00;3.30;99.90
3713;DHT22;1872;51.406;6.856;2023-01-28T13:46:08;3.20;99.90
3713;DHT22;1872;51.406;6.856;2023-01-28T13:48:50;3.30;99.90
3713;DHT22;1872;51.406;6.856;2023-01-28T13:51:58;3.20;99.90
3713;DHT22;1872;51.406;6.856;2023-01-28T13:54:17;3.20;99.90
3713;DHT22;1872;51.406;6.856;2023-01-28T14:08:22;2.80;99.90
3713;DHT22;1872;51.406;6.856;2023-01-28T14:13:52;2.60;99.90
3713;DHT22;1872;51.406;6.856;2023-01-28T14:18:52;2.50;99.90
3713;DHT22;1872;51.406;6.856;2023-01-28T14:21:21;2.50;99.90
3713;DHT22;1872;51.406;6.856;2023-01-28T14:23:49;2.50;99.90
3713;DHT22;1872;51.406;6.856;2023-01-28T14:32:12;2.30;99.90
3713;DHT22;1872;51.406;6.856;2023-01-28T14:34:38;2.30;99.90
3713;DHT22;1872;51.406;6.856;2023-01-28T14:37:07;2.20;99.90
3713;DHT22;1872;51.406;6.856;2023-01-28T14:42:22;2.20;99.90
3713;DHT22;1872;51.406;6.856;2023-01-28T14:44:57;2.20;99.90
3713;DHT22;1872;51.406;6.856;2023-01-28T14:47:43;2.30;99.90
3713;DHT22;1872;51.406;6.856;2023-01-28T14:56:11;2.30;99.90
3713;DHT22;1872;51.406;6.856;2023-01-28T14:58:49;2.30;99.90
3713;DHT22;1872;51.406;6.856;2023-01-28T15:01:25;2.30;99.90
3713;DHT22;1872;51.406;6.856;2023-01-28T15:03:52;2.30;99.90
3713;DHT22;1872;51.406;6.856;2023-01-28T15:06:21;2.30;99.90
3713;DHT22;1872;51.406;6.856;2023-01-28T15:08:49;2.40;99.90
3713;DHT22;1872;51.406;6.856;2023-01-28T15:11:25;2.40;99.90
3713;DHT22;1872;51.406;6.856;2023-01-28T15:13:54;2.30;99.90
3713;DHT22;1872;51.406;6.856;2023-01-28T15:16:23;2.30;99.90
3713;DHT22;1872;51.406;6.856;2023-01-28T15:18:51;2.30;99.90
3713;DHT22;1872;51.406;6.856;2023-01-28T15:21:25;2.30;99.90
3713;DHT22;1872;51.406;6.856;2023-01-28T15:23:54;2.30;99.90
3713;DHT22;1872;51.406;6.856;2023-01-28T15:26:23;2.30;99.90
3713;DHT22;1872;51.406;6.856;2023-01-28T15:28:51;2.20;99.90
3713;DHT22;1872;51.406;6.856;2023-01-28T15:34:14;2.20;99.90
3713;DHT22;1872;51.406;6.856;2023-01-28T15:36:40;2.20;99.90
3713;DHT22;1872;51.406;6.856;2023-01-28T15:39:13;2.20;99.90
3713;DHT22;1872;51.406;6.856;2023-01-28T15:41:42;2.30;99.90
3713;DHT22;1872;51.406;6.856;2023-01-28T15:46:48;2.20;99.90
3713;DHT22;1872;51.406;6.856;2023-01-28T15:49:15;2.10;99.90
3713;DHT22;1872;51.406;6.856;2023-01-28T15:51:48;2.10;99.90
3713;DHT22;1872;51.406;6.856;2023-01-28T15:54:16;2.10;99.90
3713;DHT22;1872;51.406;6.856;2023-01-28T15:56:42;2.10;99.90
3713;DHT22;1872;51.406;6.856;2023-01-28T15:59:16;2.10;99.90
3713;DHT22;1872;51.406;6.856;2023-01-28T16:01:43;2.10;99.90
3713;DHT22;1872;51.406;6.856;2023-01-28T16:04:28;2.10;99.90
3713;DHT22;1872;51.406;6.856;2023-01-28T16:06:56;2.00;99.90
3713;DHT22;1872;51.406;6.856;2023-01-28T16:09:27;1.90;99.90
3713;DHT22;1872;51.406;6.856;2023-01-28T16:12:10;1.90;99.90
3713;DHT22;1872;51.406;6.856;2023-01-28T16:14:58;1.80;99.90
3713;DHT22;1872;51.406;6.856;2023-01-28T16:17:38;1.70;99.90
3713;DHT22;1872;51.406;6.856;2023-01-28T16:20:08;1.70;99.90
3713;DHT22;1872;51.406;6.856;2023-01-28T16:22:43;1.70;99.90
3713;DHT22;1872;51.406;6.856;2023-01-28T16:25:39;1.60;99.90
3713;DHT22;1872;51.406;6.856;2023-01-28T16:28:16;1.60;99.90
3713;DHT22;1872;51.406;6.856;2023-01-28T16:30:45;1.50;99.90
3713;DHT22;1872;51.406;6.856;2023-01-28T16:33:18;1.50;99.90
3713;DHT22;1872;51.406;6.856;2023-01-28T16:35:45;1.50;99.90
3713;DHT22;1872;51.406;6.856;2023-01-28T16:38:10;1.50;99.90
3713;DHT22;1872;51.406;6.856;2023-01-28T16:40:41;1.40;99.90
3713;DHT22;1872;51.406;6.856;2023-01-28T16:43:10;1.40;99.90
3713;DHT22;1872;51.406;6.856;2023-01-28T16:45:40;1.40;99.90
3713;DHT22;1872;51.406;6.856;2023-01-28T16:48:06;1.30;99.90
3713;DHT22;1872;51.406;6.856;2023-01-28T16:50:35;1.30;99.90
3713;DHT22;1872;51.406;6.856;2023-01-28T16:53:03;1.20;99.90
3713;DHT22;1872;51.406;6.856;2023-01-28T16:55:28;1.10;99.90
3713;DHT22;1872;51.406;6.856;2023-01-28T16:57:56;1.10;99.90
3713;DHT22;1872;51.406;6.856;2023-01-28T17:00:24;1.10;99.90
3713;DHT22;1872;51.406;6.856;2023-01-28T17:02:53;1.00;99.90
3713;DHT22;1872;51.406;6.856;2023-01-28T17:05:20;1.00;99.90
3713;DHT22;1872;51.406;6.856;2023-01-28T17:07:47;1.00;99.90
3713;DHT22;1872;51.406;6.856;2023-01-28T17:10:13;1.00;99.90
3713;DHT22;1872;51.406;6.856;2023-01-28T17:12:40;1.00;99.90
3713;DHT22;1872;51.406;6.856;2023-01-28T17:15:06;1.00;99.90
3713;DHT22;1872;51.406;6.856;2023-01-28T17:17:32;0.90;99.90
3713;DHT22;1872;51.406;6.856;2023-01-28T17:20:00;0.90;99.90
3713;DHT22;1872;51.406;6.856;2023-01-28T17:22:26;0.80;99.90
3713;DHT22;1872;51.406;6.856;2023-01-28T17:24:52;0.80;99.90
3713;DHT22;1872;51.406;6.856;2023-01-28T17:27:17;0.70;99.90
3713;DHT22;1872;51.406;6.856;2023-01-28T17:29:43;0.70;99.90
3713;DHT22;1872;51.406;6.856;2023-01-28T17:32:09;0.70;99.90
3713;DHT22;1872;51.406;6.856;2023-01-28T17:34:35;0.60;99.90
3713;DHT22;1872;51.406;6.856;2023-01-28T17:37:01;0.60;99.90
3713;DHT22;1872;51.406;6.856;2023-01-28T17:39:26;0.60;99.90
3713;DHT22;1872;51.406;6.856;2023-01-28T17:41:52;0.60;99.90
3713;DHT22;1872;51.406;6.856;2023-01-28T17:44:18;0.50;99.90
3713;DHT22;1872;51.406;6.856;2023-01-28T17:46:47;0.60;99.90
3713;DHT22;1872;51.406;6.856;2023-01-28T17:49:13;0.50;99.90
3713;DHT22;1872;51.406;6.856;2023-01-28T17:51:38;0.50;99.90
3713;DHT22;1872;51.406;6.856;2023-01-28T17:54:04;0.50;99.90
3713;DHT22;1872;51.406;6.856;2023-01-28T17:56:30;0.50;99.90
3713;DHT22;1872;51.406;6.856;2023-01-28T17:58:58;0.50;99.90
3713;DHT22;1872;51.406;6.856;2023-01-28T18:01:27;0.50;99.90
3713;DHT22;1872;51.406;6.856;2023-01-28T18:03:53;0.50;99.90
3713;DHT22;1872;51.406;6.856;2023-01-28T18:06:19;0.50;99.90
3713;DHT22;1872;51.406;6.856;2023-01-28T18:08:46;0.50;99.90
3713;DHT22;1872;51.406;6.856;2023-01-28T18:11:15;0.50;99.90
3713;DHT22;1872;51.406;6.856;2023-01-28T18:13:41;0.50;99.90
3713;DHT22;1872;51.406;6.856;2023-01-28T18:16:10;0.50;99.90
3713;DHT22;1872;51.406;6.856;2023-01-28T18:18:36;0.40;99.90
3713;DHT22;1872;51.406;6.856;2023-01-28T18:21:04;0.40;99.90
3713;DHT22;1872;51.406;6.856;2023-01-28T18:23:31;0.40;99.90
3713;DHT22;1872;51.406;6.856;2023-01-28T18:25:58;0.40;99.90
3713;DHT22;1872;51.406;6.856;2023-01-28T18:28:26;0.30;99.90
3713;DHT22;1872;51.406;6.856;2023-01-28T18:30:52;0.30;99.90
3713;DHT22;1872;51.406;6.856;2023-01-28T18:33:21;0.20;99.90
3713;DHT22;1872;51.406;6.856;2023-01-28T18:35:48;0.20;99.90
3713;DHT22;1872;51.406;6.856;2023-01-28T18:38:14;0.20;99.90
3713;DHT22;1872;51.406;6.856;2023-01-28T18:40:44;0.20;99.90
3713;DHT22;1872;51.406;6.856;2023-01-28T18:43:10;0.20;99.90
3713;DHT22;1872;51.406;6.856;2023-01-28T18:45:38;0.20;99.90
3713;DHT22;1872;51.406;6.856;2023-01-28T18:48:04;0.20;99.90
3713;DHT22;1872;51.406;6.856;2023-01-28T18:50:32;0.20;99.90